Portada
METAR-TAF:

METAR-TAF

Aeroports :

Tunis, Tunísia

Aeroport Internacional de Tunis

latitud: 36-50N, longitud: 010-14E, altitud: 3 m

Observació

L'informe es va fer fa 8 hores i 28 minuts, a les 15:00 UTC
Vent 11 kt del Oest/Sud-Oest
Temperatura 13°C
Humitat 67%
Pressió 1006 hPa
Visibilitat 10 km o més
Escasses núvols a una alçada de 2600 ft

METAR: DTTA 201500Z 25011KT 9999 FEW026 13/07 Q1006 NOSIG

Hora: 00:28 (23:28 UTC)

Pronòstic

L'informe es va fer fa 12 hores i 28 minuts, a les 11:00 UTC
Pronòstic vàlid del 20 a les 12 UTC al 21 a les 12 UTC
Vent 10 kt del Oest/Nord-Oest
Visibilitat 10 km o més
Escasses núvols a una alçada de 2600 ft
Temporalment
l' 20 a les 16 UTC al 21 a les 04 UTC
Vent 20 kt del Oest amb ràfegues de 30 kt
Visibilitat: 4000 m
Escasses núvols a una alçada de 2600 ft, Cumulus congestus.
Escasses núvols a una alçada de 3000 ft, Cumulonimbus.
tempesta, pluja

TAF: DTTA 201100Z 2012/2112 30010KT 9999 FEW026 TEMPO 2016/2104 28020G30KT 4000 TS RA FEW026TCU FEW030CB

Observacions i pronòstics meteorològics de més de 4000 aeroports (METAR i TAF).

Les estacions disponibles són els punts grocs i vermells al mapa.

Posi el ratolí al punt desitjat per veure el nom de l'estació.

Feu clic per veure les observacions i els pronòstics meteorològics.

Per canviar el mapa: feu clic els botons verds amb una creu de color negre per apropar; al botó verd amb un guió per allunyar la imatge; o en les fletxes verdes per a mapes adjacents.


METAR-TAF: